Time;durP1;ratioP1;P1;durP2;ratioP2;P2;SDS_P1;SDS_P2;PMS_P1;PMS_P2;Temp;Humidity;BMP_temperature;BMP_pressure;BME280_temperature;BME280_humidity;BME280_pressure;Samples;Min_cycle;Max_cycle;Signal;HPM_P1;HPM_P2
2024/04/16 00:03:30;;;;;;;9.60;5.10;;;18.70;99.90;;;;;;5395331;26;21023;-64
2024/04/16 00:05:56;;;;;;;9.07;4.45;;;18.70;99.90;;;;;;5405152;26;20346;-64
2024/04/16 00:08:21;;;;;;;6.70;4.28;;;18.50;99.90;;;;;;5414975;26;20130;-64
2024/04/16 00:10:47;;;;;;;8.65;4.10;;;18.70;99.90;;;;;;5417163;26;20010;-64
2024/04/16 00:13:13;;;;;;;9.15;4.72;;;18.80;99.90;;;;;;5416590;26;20067;-64
2024/04/16 00:15:38;;;;;;;10.75;5.20;;;18.80;99.90;;;;;;5396584;26;20372;-64
2024/04/16 00:18:04;;;;;;;8.93;4.35;;;18.70;99.90;;;;;;5410881;26;20122;-65
2024/04/16 00:20:30;;;;;;;12.60;4.20;;;18.70;99.90;;;;;;5416791;26;20341;-64
2024/04/16 00:22:55;;;;;;;10.98;4.72;;;18.70;99.90;;;;;;5416383;26;20014;-64
2024/04/16 00:25:21;;;;;;;9.50;4.35;;;18.70;99.90;;;;;;5416793;26;20027;-64
2024/04/16 00:27:47;;;;;;;7.78;4.53;;;18.40;99.90;;;;;;5417023;26;20007;-64
2024/04/16 00:30:12;;;;;;;10.50;4.70;;;18.60;99.90;;;;;;5416547;26;20072;-64
2024/04/16 00:32:38;;;;;;;8.05;4.55;;;18.50;99.90;;;;;;5416456;26;20403;-64
2024/04/16 00:35:04;;;;;;;6.75;3.95;;;18.60;99.90;;;;;;5416316;26;20078;-64
2024/04/16 00:37:29;;;;;;;8.20;4.28;;;18.70;99.90;;;;;;5416293;26;19999;-64
2024/04/16 00:39:55;;;;;;;8.20;4.68;;;18.60;99.90;;;;;;5416260;26;20456;-64
2024/04/16 00:42:21;;;;;;;9.85;4.47;;;18.70;99.90;;;;;;5416590;26;20072;-64
2024/04/16 00:44:46;;;;;;;9.55;4.57;;;18.70;99.90;;;;;;5416381;26;20448;-65
2024/04/16 00:47:13;;;;;;;11.18;4.53;;;18.60;99.90;;;;;;5414944;26;20026;-64
2024/04/16 00:49:38;;;;;;;7.40;4.32;;;18.50;99.90;;;;;;5416137;26;20019;-64
2024/04/16 00:52:06;;;;;;;10.20;5.32;;;18.60;99.90;;;;;;5416280;26;19999;-64
2024/04/16 00:54:32;;;;;;;8.38;4.93;;;18.70;99.90;;;;;;5416302;26;20076;-65
2024/04/16 00:56:58;;;;;;;9.38;4.30;;;18.60;99.90;;;;;;5416636;26;20003;-64
2024/04/16 00:59:25;;;;;;;9.52;5.28;;;18.40;99.90;;;;;;5416182;26;20027;-64
2024/04/16 01:01:53;;;;;;;8.13;4.28;;;18.40;99.90;;;;;;5411091;26;20341;-64
2024/04/16 01:04:20;;;;;;;10.38;4.95;;;18.50;99.90;;;;;;5400991;26;20008;-64
2024/04/16 01:06:46;;;;;;;8.13;4.70;;;18.50;99.90;;;;;;5415119;26;20461;-65
2024/04/16 01:09:14;;;;;;;14.02;5.13;;;18.50;99.90;;;;;;5415005;26;20017;-65
2024/04/16 01:11:57;;;;;;;9.93;5.05;;;18.40;99.90;;;;;;5414341;26;20000;-65
2024/04/16 01:14:22;;;;;;;9.93;4.95;;;18.40;99.90;;;;;;5389993;26;20000;-65
2024/04/16 01:16:48;;;;;;;8.48;5.22;;;18.50;99.90;;;;;;5410496;26;20031;-65
2024/04/16 01:19:14;;;;;;;6.25;5.30;;;18.50;99.90;;;;;;5412925;26;20106;-65
2024/04/16 01:21:40;;;;;;;11.00;5.18;;;18.40;99.90;;;;;;5414916;26;20004;-65
2024/04/16 01:24:05;;;;;;;9.13;5.25;;;18.50;99.90;;;;;;5413894;26;20004;-64
2024/04/16 01:26:31;;;;;;;10.00;5.85;;;18.50;99.90;;;;;;5415225;26;20488;-64
2024/04/16 01:28:57;;;;;;;9.40;5.32;;;18.50;99.90;;;;;;5412934;26;20000;-64
2024/04/16 01:31:25;;;;;;;12.63;5.63;;;18.60;99.90;;;;;;5399653;26;20008;-65
2024/04/16 01:33:51;;;;;;;9.80;5.38;;;18.50;99.90;;;;;;5405386;26;20370;-65
2024/04/16 01:36:35;;;;;;;13.27;6.35;;;18.50;99.90;;;;;;5416067;26;20076;-65
2024/04/16 01:39:00;;;;;;;11.77;5.90;;;18.50;99.90;;;;;;5415172;26;20003;-65
2024/04/16 01:41:26;;;;;;;9.00;4.82;;;18.40;99.90;;;;;;5384251;26;20003;-65
2024/04/16 01:43:51;;;;;;;8.80;5.90;;;18.50;99.90;;;;;;5415926;26;20007;-65
2024/04/16 01:46:17;;;;;;;6.47;5.30;;;18.50;99.90;;;;;;5409638;26;20076;-65
2024/04/16 01:48:43;;;;;;;18.17;6.15;;;18.50;99.90;;;;;;5413529;26;20014;-65
2024/04/16 01:51:09;;;;;;;12.43;5.50;;;18.50;99.90;;;;;;5409161;26;20000;-65
2024/04/16 01:53:34;;;;;;;14.07;6.05;;;18.50;99.90;;;;;;5397676;26;20325;-65
2024/04/16 01:56:00;;;;;;;11.98;5.40;;;18.30;99.90;;;;;;5411208;26;20125;-65
2024/04/16 01:58:26;;;;;;;10.43;5.93;;;18.20;99.90;;;;;;5414830;26;20069;-65
2024/04/16 02:00:58;;;;;;;11.63;5.97;;;18.20;99.90;;;;;;5403592;26;20008;-65
2024/04/16 02:03:24;;;;;;;13.13;6.47;;;18.40;99.90;;;;;;5402510;26;20010;-65
2024/04/16 02:05:50;;;;;;;9.57;6.53;;;18.50;99.90;;;;;;5390190;26;20015;-65
2024/04/16 02:08:15;;;;;;;9.63;5.50;;;18.20;99.90;;;;;;5415669;26;20438;-65
2024/04/16 02:10:51;;;;;;;11.75;6.15;;;18.40;99.90;;;;;;5390522;26;19999;-65
2024/04/16 02:13:17;;;;;;;10.48;6.00;;;18.20;99.90;;;;;;5413747;26;20010;-65
2024/04/16 02:15:42;;;;;;;10.10;5.50;;;18.30;99.90;;;;;;5413347;26;20333;-65
2024/04/16 02:18:08;;;;;;;9.80;5.55;;;18.10;99.90;;;;;;5415423;26;19999;-65
2024/04/16 02:20:33;;;;;;;10.40;5.20;;;18.10;99.90;;;;;;5414046;26;19999;-65
2024/04/16 02:22:59;;;;;;;9.27;6.70;;;18.20;99.90;;;;;;5403638;26;20053;-65
2024/04/16 02:25:25;;;;;;;11.45;5.68;;;18.20;99.90;;;;;;5405180;26;20011;-65
2024/04/16 02:27:50;;;;;;;12.32;5.70;;;18.30;99.90;;;;;;5413519;26;20394;-65
2024/04/16 02:30:16;;;;;;;11.55;5.70;;;18.20;99.90;;;;;;5390254;26;20080;-65
2024/04/16 02:32:42;;;;;;;11.30;5.75;;;18.20;99.90;;;;;;5410796;26;20010;-65
2024/04/16 02:35:07;;;;;;;10.73;5.60;;;18.20;99.90;;;;;;5415138;26;20449;-65
2024/04/16 02:37:33;;;;;;;10.98;5.85;;;18.20;99.90;;;;;;5414594;26;20031;-65
2024/04/16 02:39:59;;;;;;;13.57;6.47;;;18.20;99.90;;;;;;5414734;26;20026;-65
2024/04/16 02:42:24;;;;;;;10.18;5.82;;;18.20;99.90;;;;;;5414760;26;20298;-65
2024/04/16 02:44:50;;;;;;;10.57;5.10;;;18.20;99.90;;;;;;5415032;26;20361;-65
2024/04/16 02:47:15;;;;;;;10.75;5.97;;;18.20;99.90;;;;;;5414819;26;20026;-65
2024/04/16 02:49:41;;;;;;;10.98;6.25;;;18.20;99.90;;;;;;5415027;26;19995;-65
2024/04/16 02:52:06;;;;;;;10.73;5.85;;;18.20;99.90;;;;;;5414324;26;20008;-65
2024/04/16 02:54:32;;;;;;;9.48;6.40;;;18.00;99.90;;;;;;5414761;26;20011;-65
2024/04/16 02:56:58;;;;;;;6.80;5.95;;;18.10;99.90;;;;;;5414591;26;20015;-65
2024/04/16 02:59:35;;;;;;;10.75;5.95;;;18.10;99.90;;;;;;5395887;26;20068;-65
2024/04/16 03:02:01;;;;;;;9.15;5.57;;;18.10;99.90;;;;;;5401247;26;20000;-65
2024/04/16 03:04:26;;;;;;;9.20;6.13;;;18.10;99.90;;;;;;5414702;26;20003;-65
2024/04/16 03:06:52;;;;;;;9.00;5.78;;;18.10;99.90;;;;;;5414391;26;20349;-65
2024/04/16 03:09:18;;;;;;;8.65;5.20;;;18.00;99.90;;;;;;5414393;26;20015;-65
2024/04/16 03:11:43;;;;;;;11.73;5.28;;;18.10;99.90;;;;;;5414115;26;20003;-64
2024/04/16 03:14:09;;;;;;;12.25;5.93;;;18.00;99.90;;;;;;5412588;26;20036;-65
2024/04/16 03:16:34;;;;;;;12.00;6.00;;;18.10;99.90;;;;;;5409568;26;19999;-64
2024/04/16 03:19:00;;;;;;;18.40;6.55;;;18.10;99.90;;;;;;5405399;26;20023;-65
2024/04/16 03:21:26;;;;;;;8.95;6.00;;;18.10;99.90;;;;;;5402382;26;20337;-65
2024/04/16 03:23:51;;;;;;;7.82;5.60;;;18.10;99.90;;;;;;5409135;26;19999;-65
2024/04/16 03:26:17;;;;;;;12.95;6.30;;;18.10;99.90;;;;;;5409740;26;20321;-65
2024/04/16 03:28:42;;;;;;;9.02;6.53;;;18.00;99.90;;;;;;5411536;26;20076;-65
2024/04/16 03:31:09;;;;;;;17.33;6.93;;;17.90;99.90;;;;;;5409234;26;20302;-65
2024/04/16 03:33:35;;;;;;;9.65;5.47;;;18.00;99.90;;;;;;5413875;26;20352;-65
2024/04/16 03:36:01;;;;;;;11.30;5.80;;;18.00;99.90;;;;;;5414157;26;20007;-65
2024/04/16 03:38:27;;;;;;;8.43;5.72;;;18.00;99.90;;;;;;5417548;26;20006;-65
2024/04/16 03:40:57;;;;;;;10.90;5.63;;;18.00;99.90;;;;;;5392431;26;20010;-65
2024/04/16 03:43:22;;;;;;;10.00;6.43;;;17.90;99.90;;;;;;5416931;26;20003;-65
2024/04/16 03:45:52;;;;;;;9.20;5.93;;;17.90;99.90;;;;;;5416833;26;20013;-65
2024/04/16 03:48:18;;;;;;;11.73;5.65;;;17.90;99.90;;;;;;5417437;26;20043;-65
2024/04/16 03:50:43;;;;;;;8.73;5.53;;;17.80;99.90;;;;;;5417572;26;20461;-65
2024/04/16 03:53:09;;;;;;;13.68;6.03;;;17.90;99.90;;;;;;5415269;26;20047;-65
2024/04/16 03:55:36;;;;;;;6.25;5.50;;;17.90;99.90;;;;;;5417342;26;20000;-65
2024/04/16 03:58:02;;;;;;;12.20;6.57;;;17.70;99.90;;;;;;5404092;26;20022;-65
2024/04/16 04:03:16;;;;;;;14.35;6.60;;;17.80;99.90;;;;;;5416852;26;20087;-65
2024/04/16 04:05:45;;;;;;;9.52;6.30;;;17.80;99.90;;;;;;5415062;26;20015;-65
2024/04/16 04:08:11;;;;;;;9.30;5.97;;;17.70;99.90;;;;;;5416919;26;20452;-65
2024/04/16 04:13:58;;;;;;;9.55;6.10;;;17.70;99.90;;;;;;5400354;26;20019;-65
2024/04/16 04:16:24;;;;;;;14.38;6.35;;;17.80;99.90;;;;;;5398628;26;20473;-65
2024/04/16 04:18:51;;;;;;;7.90;5.95;;;17.70;99.90;;;;;;5416933;26;20018;-65
2024/04/16 04:21:17;;;;;;;10.02;6.00;;;17.60;99.90;;;;;;5417165;26;20004;-65
2024/04/16 04:23:42;;;;;;;10.32;6.53;;;17.60;99.90;;;;;;5416450;26;20018;-65
2024/04/16 04:26:08;;;;;;;9.75;5.82;;;17.60;99.90;;;;;;5416686;26;20461;-65
2024/04/16 04:28:33;;;;;;;11.75;6.63;;;17.40;99.90;;;;;;5416965;26;20018;-65
2024/04/16 04:31:19;;;;;;;11.27;5.82;;;17.50;99.90;;;;;;5414804;26;19999;-65
2024/04/16 04:34:19;;;;;;;9.75;6.63;;;17.50;99.90;;;;;;5416460;26;20454;-65
2024/04/16 04:36:44;;;;;;;15.40;6.00;;;17.60;99.90;;;;;;5416939;26;20054;-65
2024/04/16 04:39:10;;;;;;;12.07;6.10;;;17.50;99.90;;;;;;5391441;26;20003;-65
2024/04/16 04:41:35;;;;;;;14.30;6.05;;;17.50;99.90;;;;;;5416794;26;20334;-65
2024/04/16 04:44:01;;;;;;;9.85;5.15;;;17.50;99.90;;;;;;5416467;26;20004;-65
2024/04/16 04:46:27;;;;;;;8.90;5.75;;;17.60;99.90;;;;;;5415810;26;20000;-65
2024/04/16 04:48:53;;;;;;;11.52;6.60;;;17.60;99.90;;;;;;5416755;26;20329;-65
2024/04/16 04:51:18;;;;;;;11.50;6.32;;;17.50;99.90;;;;;;5416372;26;20314;-65
2024/04/16 04:53:44;;;;;;;10.82;6.35;;;17.40;99.90;;;;;;5416329;26;20380;-65
2024/04/16 04:56:09;;;;;;;11.68;5.90;;;17.40;99.90;;;;;;5413115;26;20019;-65
2024/04/16 04:58:35;;;;;;;7.93;5.88;;;17.50;99.90;;;;;;5391496;26;20027;-65
2024/04/16 05:01:01;;;;;;;12.75;5.47;;;17.50;99.90;;;;;;5411844;26;20038;-65
2024/04/16 05:03:28;;;;;;;14.15;5.88;;;17.50;99.90;;;;;;5378912;26;20082;-65
2024/04/16 05:05:53;;;;;;;12.73;5.78;;;17.40;99.90;;;;;;5414726;26;20022;-65
2024/04/16 05:08:19;;;;;;;9.93;6.15;;;17.50;99.90;;;;;;5416327;26;20394;-65
2024/04/16 05:10:51;;;;;;;9.10;5.75;;;17.50;99.90;;;;;;5416089;26;20000;-65
2024/04/16 05:13:17;;;;;;;14.25;6.30;;;17.50;99.90;;;;;;5414106;26;20018;-65
2024/04/16 05:15:44;;;;;;;13.10;5.85;;;17.60;99.90;;;;;;5412052;26;20337;-65
2024/04/16 05:18:10;;;;;;;7.78;5.93;;;17.50;99.90;;;;;;5416038;26;20022;-65
2024/04/16 05:20:36;;;;;;;15.02;6.40;;;17.60;99.90;;;;;;5416055;26;20334;-65
2024/04/16 05:23:01;;;;;;;10.73;6.50;;;17.60;99.90;;;;;;5395560;26;20000;-75
2024/04/16 05:25:28;;;;;;;13.52;6.63;;;17.60;99.90;;;;;;5389335;26;20004;-75
2024/04/16 05:27:53;;;;;;;10.80;6.75;;;17.50;99.90;;;;;;5415656;26;20321;-76
2024/04/16 05:30:19;;;;;;;14.77;6.63;;;17.50;99.90;;;;;;5414258;26;20054;-75
2024/04/16 05:32:44;;;;;;;10.88;6.95;;;17.40;99.90;;;;;;5415325;26;20084;-75
2024/04/16 05:35:10;;;;;;;9.45;6.53;;;17.50;99.90;;;;;;5413149;26;20022;-75
2024/04/16 05:37:36;;;;;;;13.57;7.05;;;17.50;99.90;;;;;;5415667;26;20018;-76
2024/04/16 05:40:01;;;;;;;12.07;6.50;;;17.40;99.90;;;;;;5413771;26;19999;-76
2024/04/16 05:42:27;;;;;;;13.50;6.70;;;17.30;99.90;;;;;;5411866;26;20036;-76
2024/04/16 05:44:52;;;;;;;11.85;6.68;;;17.30;99.90;;;;;;5415698;26;20375;-75
2024/04/16 05:47:18;;;;;;;11.15;5.90;;;17.40;99.90;;;;;;5415743;26;20023;-76
2024/04/16 05:49:44;;;;;;;9.50;5.70;;;17.30;99.90;;;;;;5415430;26;20003;-76
2024/04/16 05:52:09;;;;;;;10.65;6.63;;;17.30;99.90;;;;;;5404409;26;20000;-75
2024/04/16 05:54:35;;;;;;;13.48;7.00;;;17.40;99.90;;;;;;5415438;26;20076;-74
2024/04/16 05:57:01;;;;;;;14.93;6.57;;;17.40;99.90;;;;;;5414766;26;20366;-75
2024/04/16 05:59:26;;;;;;;13.18;7.00;;;17.30;99.90;;;;;;5384301;26;20009;-74
2024/04/16 06:01:52;;;;;;;13.50;7.32;;;17.40;99.90;;;;;;5396199;26;20008;-74
2024/04/16 06:04:17;;;;;;;14.15;7.00;;;17.40;99.90;;;;;;5415691;26;20021;-74
2024/04/16 06:06:43;;;;;;;11.07;6.68;;;17.40;99.90;;;;;;5402973;26;20078;-75
2024/04/16 06:09:09;;;;;;;14.73;7.10;;;17.50;99.90;;;;;;5403117;26;20022;-74
2024/04/16 06:11:34;;;;;;;9.82;6.65;;;17.40;99.90;;;;;;5414867;26;20080;-74
2024/04/16 06:14:00;;;;;;;8.48;7.15;;;17.30;99.90;;;;;;5415218;26;20397;-75
2024/04/16 06:16:26;;;;;;;13.30;6.85;;;17.40;99.90;;;;;;5409927;26;20004;-74
2024/04/16 06:18:54;;;;;;;14.15;7.00;;;17.40;99.90;;;;;;5400224;26;20018;-74
2024/04/16 06:21:19;;;;;;;11.95;6.82;;;17.50;99.90;;;;;;5390740;26;20000;-74
2024/04/16 06:23:48;;;;;;;13.30;6.57;;;17.40;99.90;;;;;;5414162;26;20004;-74
2024/04/16 06:26:13;;;;;;;12.82;6.82;;;17.50;99.90;;;;;;5409233;26;20011;-74
2024/04/16 06:28:39;;;;;;;12.55;6.32;;;17.70;99.90;;;;;;5415624;26;19999;-75
2024/04/16 06:31:05;;;;;;;12.63;6.30;;;17.50;99.90;;;;;;5412440;26;20033;-75
2024/04/16 06:33:33;;;;;;;11.48;6.82;;;17.50;99.90;;;;;;5414392;26;20018;-75
2024/04/16 06:35:59;;;;;;;15.20;7.32;;;17.40;99.90;;;;;;5409956;26;20010;-75
2024/04/16 06:38:25;;;;;;;9.10;6.70;;;17.50;99.90;;;;;;5414685;26;19999;-75
2024/04/16 06:40:51;;;;;;;12.60;7.78;;;17.50;99.90;;;;;;5414754;26;20014;-75
2024/04/16 06:43:17;;;;;;;15.95;7.78;;;17.50;99.90;;;;;;5414976;26;20003;-75
2024/04/16 06:53:18;;;;;;;15.88;9.45;;;17.70;99.90;;;;;;5390694;26;20075;-74
2024/04/16 06:55:44;;;;;;;21.20;8.55;;;17.70;99.90;;;;;;5407099;26;20011;-74
2024/04/16 06:58:10;;;;;;;14.20;8.30;;;17.60;99.90;;;;;;5403760;26;20077;-62
2024/04/16 07:00:36;;;;;;;17.83;8.73;;;17.80;99.90;;;;;;5412441;26;20014;-62
2024/04/16 07:03:02;;;;;;;13.20;9.00;;;17.80;99.90;;;;;;5412409;26;20336;-62
2024/04/16 07:05:29;;;;;;;14.23;7.97;;;17.80;99.90;;;;;;5413081;26;20442;-62
2024/04/16 07:07:54;;;;;;;13.05;7.95;;;17.90;99.90;;;;;;5414518;26;20011;-62
2024/04/16 07:10:20;;;;;;;16.05;8.23;;;18.00;99.90;;;;;;5417164;26;20078;-62
2024/04/16 07:12:46;;;;;;;16.02;9.15;;;18.00;99.90;;;;;;5416045;26;20000;-62
2024/04/16 07:15:12;;;;;;;17.70;8.43;;;18.10;99.90;;;;;;5418093;26;20015;-62
2024/04/16 07:17:37;;;;;;;12.40;8.32;;;18.10;99.90;;;;;;5418096;26;20040;-63
2024/04/16 07:20:03;;;;;;;12.13;7.90;;;18.10;99.90;;;;;;5417929;26;20359;-64
2024/04/16 07:22:29;;;;;;;10.52;7.95;;;18.20;99.90;;;;;;5416312;26;20009;-63
2024/04/16 07:24:55;;;;;;;12.88;8.40;;;18.20;99.90;;;;;;5409419;26;20000;-64
2024/04/16 07:27:21;;;;;;;9.65;7.85;;;18.30;99.90;;;;;;5406085;26;20760;-63
2024/04/16 07:29:47;;;;;;;10.68;7.28;;;18.30;99.90;;;;;;5402183;26;20011;-63
2024/04/16 07:32:13;;;;;;;11.50;8.10;;;18.30;99.90;;;;;;5409485;26;20011;-63
2024/04/16 07:34:39;;;;;;;15.80;8.02;;;18.30;99.90;;;;;;5414791;26;19999;-63
2024/04/16 07:37:04;;;;;;;14.98;8.20;;;18.40;99.90;;;;;;5407785;26;20098;-63
2024/04/16 07:39:30;;;;;;;11.80;8.02;;;18.50;99.90;;;;;;5392889;26;20010;-64
2024/04/16 07:41:56;;;;;;;12.68;6.60;;;18.50;99.90;;;;;;5415743;26;20032;-65
2024/04/16 07:44:22;;;;;;;11.32;6.60;;;18.70;99.90;;;;;;5411932;26;19999;-64
2024/04/16 07:46:48;;;;;;;10.02;6.93;;;18.70;99.90;;;;;;5412067;26;20440;-65
2024/04/16 07:49:13;;;;;;;11.52;6.65;;;18.80;99.90;;;;;;5414668;26;20017;-65
2024/04/16 07:51:39;;;;;;;10.82;5.88;;;18.90;99.90;;;;;;5414887;26;19996;-66
2024/04/16 07:54:04;;;;;;;11.80;5.68;;;18.90;99.90;;;;;;5413739;26;20081;-64
2024/04/16 07:56:30;;;;;;;12.95;5.90;;;19.00;99.90;;;;;;5416833;26;19999;-66
2024/04/16 07:58:56;;;;;;;6.30;4.45;;;19.10;99.90;;;;;;5404082;26;20008;-61
2024/04/16 08:01:22;;;;;;;7.40;4.03;;;19.10;99.90;;;;;;5415320;26;20018;-61
2024/04/16 08:03:47;;;;;;;9.40;4.90;;;19.20;99.90;;;;;;5405664;26;20494;-66
2024/04/16 08:06:13;;;;;;;7.35;4.13;;;19.30;99.90;;;;;;5416319;26;20015;-62
2024/04/16 08:08:38;;;;;;;9.18;4.30;;;19.30;99.90;;;;;;5413678;26;20006;-64
2024/04/16 08:11:12;;;;;;;6.25;3.72;;;19.30;99.90;;;;;;5392771;26;20073;-64
2024/04/16 08:13:39;;;;;;;6.20;3.20;;;19.40;99.90;;;;;;5416526;26;20011;-69
2024/04/16 08:16:05;;;;;;;8.30;3.67;;;19.50;99.90;;;;;;5416216;26;20011;-60
2024/04/16 08:18:31;;;;;;;10.55;3.70;;;19.50;99.90;;;;;;5415983;26;20461;-56
2024/04/16 08:20:56;;;;;;;5.65;2.90;;;19.60;99.90;;;;;;5415247;26;19999;-59
2024/04/16 08:23:22;;;;;;;8.25;3.17;;;19.70;99.90;;;;;;5416685;26;19999;-69
2024/04/16 08:26:04;;;;;;;6.65;2.80;;;19.70;99.90;;;;;;5415731;26;20006;-62
2024/04/16 08:28:30;;;;;;;4.72;2.35;;;19.70;99.90;;;;;;5416219;26;20031;-60
2024/04/16 08:31:01;;;;;;;6.50;2.10;;;19.90;99.90;;;;;;5416520;26;20008;-64
2024/04/16 08:33:26;;;;;;;5.65;2.10;;;20.00;99.90;;;;;;5411214;26;20000;-62
2024/04/16 08:35:53;;;;;;;7.47;1.92;;;20.00;99.90;;;;;;5415337;26;20019;-66
2024/04/16 08:38:19;;;;;;;3.15;1.35;;;20.10;99.90;;;;;;5416628;26;20496;-66
2024/04/16 08:40:45;;;;;;;2.28;0.90;;;20.20;99.90;;;;;;5414706;26;22194;-65
2024/04/16 08:43:11;;;;;;;3.10;0.77;;;20.30;99.90;;;;;;5408062;26;20004;-64
2024/04/16 08:45:44;;;;;;;3.65;0.90;;;20.40;99.90;;;;;;5393003;26;20036;-67
2024/04/16 08:48:11;;;;;;;3.45;0.45;;;20.40;99.90;;;;;;5411044;26;20031;-65
2024/04/16 08:50:37;;;;;;;7.03;0.63;;;20.50;99.90;;;;;;5414027;26;20003;-61
2024/04/16 08:53:03;;;;;;;13.48;0.60;;;20.50;99.90;;;;;;5382507;26;20004;-71
2024/04/16 08:55:30;;;;;;;9.05;0.80;;;20.60;99.90;;;;;;5412606;26;20307;-67
2024/04/16 08:57:57;;;;;;;5.15;0.68;;;20.70;99.90;;;;;;5416667;26;20081;-60
2024/04/16 09:00:23;;;;;;;2.13;0.32;;;20.70;99.90;;;;;;5416062;26;20000;-59
2024/04/16 09:02:52;;;;;;;7.15;0.90;;;20.80;99.90;;;;;;5415761;26;20015;-65
2024/04/16 09:05:18;;;;;;;6.53;0.60;;;20.90;99.90;;;;;;5416566;26;20127;-61
2024/04/16 09:07:44;;;;;;;5.40;0.60;;;21.00;99.90;;;;;;5415967;26;20015;-63
2024/04/16 09:10:20;;;;;;;3.97;0.60;;;21.10;99.90;;;;;;5415859;26;20035;-63
2024/04/16 09:12:47;;;;;;;4.20;0.57;;;21.00;99.90;;;;;;5402171;26;20080;-72
2024/04/16 09:15:13;;;;;;;2.60;0.40;;;21.00;99.90;;;;;;5411242;26;20016;-64
2024/04/16 09:17:53;;;;;;;4.47;0.50;;;21.00;99.90;;;;;;5416218;26;20010;-63
2024/04/16 09:20:24;;;;;;;2.40;0.50;;;21.00;99.90;;;;;;5413792;26;19999;-62
2024/04/16 09:22:52;;;;;;;3.58;0.50;;;21.20;99.90;;;;;;5415713;26;20007;-60
2024/04/16 09:25:19;;;;;;;4.78;0.90;;;21.00;99.90;;;;;;5405862;26;20454;-60
2024/04/16 09:27:52;;;;;;;4.63;0.80;;;21.20;99.90;;;;;;5411801;26;20007;-56
2024/04/16 09:30:18;;;;;;;6.25;1.00;;;21.20;99.90;;;;;;5408139;26;20486;-60
2024/04/16 09:32:56;;;;;;;5.30;0.85;;;21.20;99.90;;;;;;5401496;26;20017;-60
2024/04/16 09:35:28;;;;;;;3.30;1.02;;;21.20;99.90;;;;;;5403850;26;20004;-60
2024/04/16 09:38:03;;;;;;;2.92;1.00;;;21.20;99.90;;;;;;5408288;26;20036;-56
2024/04/16 09:40:29;;;;;;;5.00;0.52;;;21.20;99.90;;;;;;5407753;26;20445;-73
2024/04/16 09:42:59;;;;;;;3.35;0.40;;;21.40;99.90;;;;;;5405790;26;20003;-73
2024/04/16 09:45:25;;;;;;;1.52;0.47;;;21.40;99.90;;;;;;5390137;26;20008;-73
2024/04/16 09:47:53;;;;;;;1.25;0.35;;;21.30;99.90;;;;;;5405850;26;20184;-72
2024/04/16 09:50:20;;;;;;;2.63;0.40;;;21.40;99.90;;;;;;5405982;26;20007;-62
2024/04/16 09:52:54;;;;;;;1.95;0.45;;;21.30;99.90;;;;;;5406737;26;20020;-59
2024/04/16 09:55:24;;;;;;;4.15;0.55;;;21.30;99.90;;;;;;5392492;26;20007;-61
2024/04/16 09:57:51;;;;;;;5.82;0.65;;;21.30;99.90;;;;;;5399464;26;20009;-62
2024/04/16 10:00:18;;;;;;;2.00;0.40;;;21.30;99.90;;;;;;5405178;26;20091;-62
2024/04/16 10:02:45;;;;;;;5.85;0.75;;;21.40;99.90;;;;;;5404344;26;19996;-63
2024/04/16 10:05:12;;;;;;;8.13;0.55;;;21.40;99.90;;;;;;5407590;26;20086;-60
2024/04/16 10:07:40;;;;;;;4.03;0.40;;;21.50;99.90;;;;;;5403910;26;20018;-61
2024/04/16 10:10:07;;;;;;;4.07;0.60;;;21.50;99.90;;;;;;5405859;26;20000;-68
2024/04/16 10:12:33;;;;;;;4.22;0.50;;;21.50;99.90;;;;;;5400464;26;20141;-75
2024/04/16 10:15:01;;;;;;;1.30;0.30;;;21.40;99.90;;;;;;5402865;26;20533;-63
2024/04/16 10:17:28;;;;;;;4.38;1.05;;;21.50;99.90;;;;;;5409662;26;21113;-60
2024/04/16 10:19:54;;;;;;;1.63;0.32;;;21.50;99.90;;;;;;5407552;26;20026;-65
2024/04/16 10:22:19;;;;;;;3.90;0.40;;;21.50;99.90;;;;;;5401202;26;20465;-66
2024/04/16 10:24:52;;;;;;;3.15;0.43;;;21.50;99.90;;;;;;5401815;26;19999;-62
2024/04/16 10:27:25;;;;;;;2.78;0.30;;;21.40;99.90;;;;;;5402423;26;20003;-66
2024/04/16 10:30:15;;;;;;;4.13;0.50;;;21.50;99.90;;;;;;5400948;26;20476;-63
2024/04/16 10:32:46;;;;;;;3.25;0.55;;;21.50;99.90;;;;;;5419471;26;20006;-63
2024/04/16 10:35:13;;;;;;;3.35;0.50;;;21.60;99.90;;;;;;5403660;26;19992;-63
2024/04/16 10:37:39;;;;;;;5.93;0.90;;;21.60;99.90;;;;;;5405737;26;20000;-61
2024/04/16 10:40:05;;;;;;;7.68;0.47;;;21.60;99.90;;;;;;5407220;26;20011;-47
2024/04/16 10:42:36;;;;;;;12.55;0.90;;;21.60;99.90;;;;;;5403949;26;20011;-60
2024/04/16 10:45:03;;;;;;;5.75;0.65;;;21.60;99.90;;;;;;5414308;26;20014;-65
2024/04/16 10:47:30;;;;;;;3.35;0.40;;;;;;;;;;5403633;26;20035;-68
2024/04/16 10:49:58;;;;;;;7.18;0.60;;;;;;;;;;5410547;26;20504;-68
2024/04/16 10:52:24;;;;;;;8.82;0.85;;;;;;;;;;5415335;26;20037;-68
2024/04/16 10:54:52;;;;;;;1.98;0.50;;;;;;;;;;5415204;26;19995;-69
2024/04/16 10:57:21;;;;;;;1.50;0.45;;;;;;;;;;5401160;26;19997;-68
2024/04/16 10:59:47;;;;;;;2.13;0.57;;;;;;;;;;5394084;26;20000;-68
2024/04/16 11:02:13;;;;;;;3.10;0.40;;;;;;;;;;5406006;26;20011;-68
2024/04/16 11:04:40;;;;;;;2.22;0.50;;;;;;;;;;5414825;26;20007;-68
2024/04/16 11:07:06;;;;;;;5.03;0.50;;;;;;;;;;5408258;26;20010;-68
2024/04/16 11:09:32;;;;;;;8.20;0.90;;;;;;;;;;5398394;26;20003;-69
2024/04/16 11:12:04;;;;;;;3.05;0.70;;;;;;;;;;5410748;26;20070;-70
2024/04/16 11:14:30;;;;;;;7.10;0.77;;;;;;;;;;5396541;26;20043;-70
2024/04/16 11:16:56;;;;;;;6.75;0.75;;;;;;;;;;5414537;26;20015;-69
2024/04/16 11:19:22;;;;;;;2.85;0.40;;;;;;;;;;5414572;26;20335;-69
2024/04/16 11:21:48;;;;;;;5.05;0.80;;;;;;;;;;5414518;26;19999;-70
2024/04/16 11:24:14;;;;;;;3.53;0.40;;;;;;;;;;5414505;26;19999;-69
2024/04/16 11:26:40;;;;;;;4.03;0.40;;;;;;;;;;5394595;26;20018;-65
2024/04/16 11:29:06;;;;;;;7.72;0.90;;;;;;;;;;5389997;26;19999;-65
2024/04/16 11:31:33;;;;;;;6.03;0.80;;;;;;;;;;5403936;26;20441;-65
2024/04/16 11:33:59;;;;;;;6.20;0.65;;;;;;;;;;5405936;26;20453;-65
2024/04/16 11:36:26;;;;;;;5.88;0.70;;;;;;;;;;5412630;26;20102;-65
2024/04/16 11:38:53;;;;;;;6.32;1.02;;;;;;;;;;5401587;26;19992;-65
2024/04/16 11:41:19;;;;;;;8.75;1.08;;;;;;;;;;5405589;26;20082;-65
2024/04/16 11:43:45;;;;;;;3.15;0.68;;;;;;;;;;5409052;26;20007;-66
2024/04/16 11:46:15;;;;;;;1.92;0.43;;;;;;;;;;5392218;26;19995;-65
2024/04/16 11:48:42;;;;;;;5.00;0.47;;;;;;;;;;5398642;26;20018;-66
2024/04/16 11:51:09;;;;;;;6.15;0.88;;;;;;;;;;5412822;26;20004;-65
2024/04/16 11:53:35;;;;;;;4.68;0.50;;;;;;;;;;5399183;26;20426;-66
2024/04/16 11:56:01;;;;;;;8.00;1.25;;;;;;;;;;5409350;26;20000;-66
2024/04/16 11:58:27;;;;;;;9.63;1.02;;;;;;;;;;5405006;26;20000;-66
2024/04/16 12:00:53;;;;;;;12.10;1.40;;;;;;;;;;5416800;26;20083;-66
2024/04/16 12:03:19;;;;;;;6.32;1.02;;;;;;;;;;5413953;26;20007;-66
2024/04/16 12:05:45;;;;;;;6.30;0.98;;;;;;;;;;5390712;26;20012;-66
2024/04/16 12:08:11;;;;;;;6.22;0.75;;;;;;;;;;5417499;26;20089;-66
2024/04/16 12:10:37;;;;;;;4.47;0.93;;;;;;;;;;5417287;26;20408;-66
2024/04/16 12:13:03;;;;;;;2.90;0.60;;;;;;;;;;5403505;26;20009;-66
2024/04/16 12:15:30;;;;;;;5.18;0.90;;;;;;;;;;5397969;26;20004;-66
2024/04/16 12:17:56;;;;;;;3.45;0.73;;;;;;;;;;5407061;26;20333;-66
2024/04/16 12:20:22;;;;;;;6.43;1.02;;;;;;;;;;5409844;26;20011;-66
2024/04/16 12:22:48;;;;;;;6.75;1.38;;;;;;;;;;5408572;26;20075;-71
2024/04/16 12:25:14;;;;;;;9.25;1.58;;;;;;;;;;5417799;26;20007;-58
2024/04/16 12:27:40;;;;;;;5.53;1.35;;;;;;;;;;5398513;26;20012;-58
2024/04/16 12:30:06;;;;;;;7.43;1.58;;;;;;;;;;5410282;26;19999;-56
2024/04/16 12:32:32;;;;;;;3.13;0.80;;;;;;;;;;5415850;26;20014;-62
2024/04/16 12:34:58;;;;;;;13.15;1.52;;;;;;;;;;5414670;26;20363;-57
2024/04/16 12:37:24;;;;;;;3.80;1.10;;;;;;;;;;5415957;26;20000;-59
2024/04/16 12:39:51;;;;;;;8.23;1.13;;;;;;;;;;5416591;26;20003;-61
2024/04/16 12:42:17;;;;;;;5.43;1.00;;;;;;;;;;5411329;26;20018;-59
2024/04/16 12:47:47;;;;;;;4.15;0.80;;;;;;;;;;5393443;26;20073;-62
2024/04/16 12:50:13;;;;;;;2.78;0.80;;;;;;;;;;5410745;26;20004;-60
2024/04/16 12:52:39;;;;;;;4.85;1.02;;;;;;;;;;5407033;26;20432;-62
2024/04/16 12:55:05;;;;;;;5.47;1.10;;;;;;;;;;5413331;26;20000;-62
2024/04/16 12:57:31;;;;;;;4.82;1.20;;;;;;;;;;5414548;26;20003;-65
2024/04/16 12:59:57;;;;;;;3.63;0.95;;;;;;;;;;5416518;26;20035;-63
2024/04/16 13:02:23;;;;;;;2.50;0.80;;;;;;;;;;5407794;26;20004;-67
2024/04/16 13:04:50;;;;;;;1.02;0.63;;;;;;;;;;5417590;26;20080;-65
2024/04/16 13:07:17;;;;;;;1.27;0.82;;;;;;;;;;5415279;26;20076;-67
2024/04/16 13:09:43;;;;;;;3.10;0.90;;;;;;;;;;5401483;26;20337;-66
2024/04/16 13:12:09;;;;;;;2.15;0.75;;;;;;;;;;5408496;26;20004;-63
2024/04/16 13:14:35;;;;;;;3.83;0.68;;;;;;;;;;5416265;26;20003;-64
2024/04/16 13:17:01;;;;;;;2.67;0.63;;;;;;;;;;5413006;26;20416;-63
2024/04/16 13:19:27;;;;;;;2.90;0.90;;;;;;;;;;5415660;26;20008;-65